Ops Hamburg — A8VS9 — position and weather

sailwx.info

Track history (hours):
 
Tides and Currents Weather Stations Pressure Air Temp Water Temp Dewpoint Dewpoint Depression Visibility Wind Speed Wind Dir Waves Ship Positions

Ops Hamburg

Last reported at 2017-Apr-29 12:21 UTC. Time now 2017-Apr-29 23:10 UTC.
Position N 37°22' W 000°49'.

Length 148 m; draft 8.2 m.

Type: Ship (hazmat cat A). MMSI: 636092040.

Date/timePositionNaut miles runAvg speedWind from/ knotsBaromVisibWave heightAir tempDewpointWater temp
2017-Apr-29 12:21N 37°22' W 000°49'514.7
2017-Apr-29 12:00N 37°25' W 000°44'814.4
2017-Apr-29 11:29N 37°31' W 000°37'714.2
2017-Apr-29 11:00N 37°36' W 000°32'714.3
2017-Apr-29 10:30N 37°41' W 000°25'102 9.7
2017-Apr-28 23:58N 39°22' W 000°10'613.4
2017-Apr-28 23:30N 39°25' W 000°17'2 3.8
2017-Apr-28 23:00N 39°26' W 000°19'0 0.0
2017-Apr-28 22:30N 39°26' W 000°19'0 0.0
2017-Apr-28 22:00N 39°26' W 000°19'0 0.0
2017-Apr-28 21:30N 39°26' W 000°19'0 0.0
2017-Apr-28 21:00N 39°26' W 000°19'0 0.0
2017-Apr-28 20:30N 39°26' W 000°19'0 0.0
2017-Apr-28 20:00N 39°26' W 000°19'0 0.0
2017-Apr-28 19:30N 39°26' W 000°19'0 0.0
2017-Apr-28 19:00N 39°26' W 000°19'0 0.0
2017-Apr-28 18:30N 39°26' W 000°19'0 0.0
2017-Apr-28 18:00N 39°26' W 000°19'0 0.0
2017-Apr-28 17:30N 39°26' W 000°19'0 0.0
2017-Apr-28 17:00N 39°26' W 000°19'0 0.0
2017-Apr-28 16:30N 39°26' W 000°19'0 0.0
2017-Apr-28 15:57N 39°26' W 000°19'0 0.0
2017-Apr-28 15:30N 39°26' W 000°19'0 0.0
2017-Apr-28 15:00N 39°26' W 000°19'0 0.0
2017-Apr-28 14:00N 39°26' W 000°19'0 0.0
2017-Apr-28 13:30N 39°26' W 000°19'0 0.3
2017-Apr-28 13:00N 39°26' W 000°19'3 5.0
2017-Apr-28 12:28N 39°25' W 000°16'1 2.7
2017-Apr-28 12:00N 39°26' W 000°14'11 4.7
2017-Apr-28 09:43N 39°32' W 000°03'5413.3
2017-Apr-28 05:38N 40°10' E 000°48'414.7
2017-Apr-28 05:22N 40°13' E 000°52'614.6
2017-Apr-28 04:59N 40°17' E 000°57'714.5
2017-Apr-28 04:29N 40°22' E 001°04'714.5
2017-Apr-28 04:00N 40°26' E 001°11'914.6
2017-Apr-28 03:23N 40°32' E 001°20'514.6
2017-Apr-28 03:00N 40°36' E 001°25'714.7
2017-Apr-28 02:30N 40°41' E 001°32'714.5
2017-Apr-28 02:00N 40°46' E 001°39'714.5
2017-Apr-28 01:30N 40°51' E 001°46'714.5
2017-Apr-28 01:00N 40°56' E 001°52'714.1
2017-Apr-28 00:30N 41°02' E 001°58'611.8
2017-Apr-27 23:59N 41°07' E 002°03'15 0.3
2017-Apr-26 05:44N 41°20' E 002°12'1 2.8
2017-Apr-26 05:17N 41°20' E 002°13'4 7.6
2017-Apr-26 04:47N 41°17' E 002°17'2 4.5
2017-Apr-26 04:16N 41°17' E 002°20'610.4
2017-Apr-26 03:42N 41°18' E 002°28'210.6
2017-Apr-26 03:28N 41°19' E 002°31'612.1
2017-Apr-26 02:59N 41°22' E 002°38'612.3
2017-Apr-26 02:30N 41°24' E 002°45'612.6
2017-Apr-26 02:00N 41°27' E 002°53'7211.9
2017-Apr-25 19:54N 42°18' E 004°03'1611.2
2017-Apr-25 18:30N 42°29' E 004°17'611.1
2017-Apr-25 18:00N 42°33' E 004°22'611.6
2017-Apr-25 17:30N 42°38' E 004°27'3512.3
2017-Apr-25 14:41N 43°04' E 004°59'912.5
2017-Apr-25 13:57N 43°10' E 005°07'511.7
2017-Apr-25 13:30N 43°15' E 005°09'612.1
2017-Apr-25 13:00N 43°20' E 005°15'4 0.2
2017-Apr-24 18:43N 43°21' E 005°20'0 0.7
2017-Apr-24 18:30N 43°21' E 005°20'4 7.4
2017-Apr-24 18:00N 43°19' E 005°15'5 9.9
2017-Apr-24 17:30N 43°16' E 005°11'1811.7
2017-Apr-24 15:59N 42°58' E 005°05'611.9
2017-Apr-24 15:31N 42°54' E 005°01'1912.3
2017-Apr-24 14:00N 42°39' E 004°46'612.5
2017-Apr-24 13:30N 42°34' E 004°41'1812.1
2017-Apr-24 12:00N 42°20' E 004°25'2412.0
2017-Apr-24 10:00N 42°01' E 004°05'611.9
2017-Apr-24 09:30N 41°56' E 003°60'611.9
2017-Apr-24 08:59N 41°51' E 003°54'611.9
2017-Apr-24 08:30N 41°47' E 003°50'611.7
2017-Apr-24 08:01N 41°42' E 003°46'611.9
2017-Apr-24 07:30N 41°38' E 003°41'815.6
2017-Apr-24 07:00N 41°32' E 003°33'816.1
2017-Apr-24 06:30N 41°27' E 003°25'714.2
2017-Apr-24 06:00N 41°21' E 003°19'713.0
2017-Apr-24 05:30N 41°16' E 003°14'713.0
2017-Apr-24 05:00N 41°11' E 003°08'612.9
2017-Apr-24 04:30N 41°06' E 003°03'713.3
2017-Apr-24 04:00N 41°00' E 002°58'713.3
2017-Apr-24 03:30N 40°55' E 002°53'713.2
2017-Apr-24 03:00N 40°50' E 002°48'613.2
2017-Apr-24 02:30N 40°44' E 002°42'713.2
2017-Apr-24 02:00N 40°39' E 002°37'613.2
2017-Apr-24 01:30N 40°34' E 002°32'613.0
2017-Apr-24 01:00N 40°29' E 002°27'713.0
2017-Apr-24 00:30N 40°24' E 002°22'613.1
2017-Apr-24 00:00N 40°18' E 002°17'713.6
2017-Apr-23 23:30N 40°13' E 002°11'713.8
2017-Apr-23 23:00N 40°07' E 002°06'713.4
2017-Apr-23 22:30N 40°02' E 002°00'713.3
2017-Apr-23 22:01N 39°57' E 001°55'713.2
2017-Apr-23 21:30N 39°51' E 001°50'713.0
2017-Apr-23 21:00N 39°46' E 001°45'713.0
2017-Apr-23 20:30N 39°41' E 001°40'713.2
2017-Apr-23 19:59N 39°35' E 001°35'613.2
2017-Apr-23 19:30N 39°30' E 001°30'913.1
2017-Apr-23 18:51N 39°24' E 001°23'513.1
2017-Apr-23 18:30N 39°20' E 001°19'613.1
2017-Apr-23 18:01N 39°15' E 001°14'6613.2
2017-Apr-23 12:58N 38°19' E 000°28'613.1
2017-Apr-23 12:30N 38°14' E 000°24'612.7
2017-Apr-23 12:00N 38°08' E 000°20'  
2017-Apr-19 15:22N 35°57' W 004°56'810.1
2017-Apr-19 14:37N 35°59' W 005°05'110.5
2017-Apr-19 14:29N 35°59' W 005°07'1111.3
2017-Apr-19 13:30N 35°59' W 005°20'611.5
2017-Apr-19 13:00N 35°57' W 005°27'3 6.9
2017-Apr-19 12:30N 35°54' W 005°30'  
Track history (hours):
 
Tides and Currents Weather Stations Pressure Air Temp Water Temp Dewpoint Dewpoint Depression Visibility Wind Speed Wind Dir Waves Ship Positions

Ops Hamburg

Last reported at 2017-Apr-29 12:21 UTC. Time now 2017-Apr-29 23:10 UTC.
Position N 37°22' W 000°49'.

Length 148 m; draft 8.2 m.

Type: Ship (hazmat cat A). MMSI: 636092040.

Date/timePositionNaut miles runAvg speedWind from/ knotsBaromVisibWave heightAir tempDewpointWater temp
2017-Apr-29 12:21N 37°22' W 000°49'514.7
2017-Apr-29 12:00N 37°25' W 000°44'814.4
2017-Apr-29 11:29N 37°31' W 000°37'714.2
2017-Apr-29 11:00N 37°36' W 000°32'714.3
2017-Apr-29 10:30N 37°41' W 000°25'102 9.7
2017-Apr-28 23:58N 39°22' W 000°10'613.4
2017-Apr-28 23:30N 39°25' W 000°17'2 3.8
2017-Apr-28 23:00N 39°26' W 000°19'0 0.0
2017-Apr-28 22:30N 39°26' W 000°19'0 0.0
2017-Apr-28 22:00N 39°26' W 000°19'0 0.0
2017-Apr-28 21:30N 39°26' W 000°19'0 0.0
2017-Apr-28 21:00N 39°26' W 000°19'0 0.0
2017-Apr-28 20:30N 39°26' W 000°19'0 0.0
2017-Apr-28 20:00N 39°26' W 000°19'0 0.0
2017-Apr-28 19:30N 39°26' W 000°19'0 0.0
2017-Apr-28 19:00N 39°26' W 000°19'0 0.0
2017-Apr-28 18:30N 39°26' W 000°19'0 0.0
2017-Apr-28 18:00N 39°26' W 000°19'0 0.0
2017-Apr-28 17:30N 39°26' W 000°19'0 0.0
2017-Apr-28 17:00N 39°26' W 000°19'0 0.0
2017-Apr-28 16:30N 39°26' W 000°19'0 0.0
2017-Apr-28 15:57N 39°26' W 000°19'0 0.0
2017-Apr-28 15:30N 39°26' W 000°19'0 0.0
2017-Apr-28 15:00N 39°26' W 000°19'0 0.0
2017-Apr-28 14:00N 39°26' W 000°19'0 0.0
2017-Apr-28 13:30N 39°26' W 000°19'0 0.3
2017-Apr-28 13:00N 39°26' W 000°19'3 5.0
2017-Apr-28 12:28N 39°25' W 000°16'1 2.7
2017-Apr-28 12:00N 39°26' W 000°14'11 4.7
2017-Apr-28 09:43N 39°32' W 000°03'5413.3
2017-Apr-28 05:38N 40°10' E 000°48'414.7
2017-Apr-28 05:22N 40°13' E 000°52'614.6
2017-Apr-28 04:59N 40°17' E 000°57'714.5
2017-Apr-28 04:29N 40°22' E 001°04'714.5
2017-Apr-28 04:00N 40°26' E 001°11'914.6
2017-Apr-28 03:23N 40°32' E 001°20'514.6
2017-Apr-28 03:00N 40°36' E 001°25'714.7
2017-Apr-28 02:30N 40°41' E 001°32'714.5
2017-Apr-28 02:00N 40°46' E 001°39'714.5
2017-Apr-28 01:30N 40°51' E 001°46'714.5
2017-Apr-28 01:00N 40°56' E 001°52'714.1
2017-Apr-28 00:30N 41°02' E 001°58'611.8
2017-Apr-27 23:59N 41°07' E 002°03'15 0.3
2017-Apr-26 05:44N 41°20' E 002°12'1 2.8
2017-Apr-26 05:17N 41°20' E 002°13'4 7.6
2017-Apr-26 04:47N 41°17' E 002°17'2 4.5
2017-Apr-26 04:16N 41°17' E 002°20'610.4
2017-Apr-26 03:42N 41°18' E 002°28'210.6
2017-Apr-26 03:28N 41°19' E 002°31'612.1
2017-Apr-26 02:59N 41°22' E 002°38'612.3
2017-Apr-26 02:30N 41°24' E 002°45'612.6
2017-Apr-26 02:00N 41°27' E 002°53'7211.9
2017-Apr-25 19:54N 42°18' E 004°03'1611.2
2017-Apr-25 18:30N 42°29' E 004°17'611.1
2017-Apr-25 18:00N 42°33' E 004°22'611.6
2017-Apr-25 17:30N 42°38' E 004°27'3512.3
2017-Apr-25 14:41N 43°04' E 004°59'912.5
2017-Apr-25 13:57N 43°10' E 005°07'511.7
2017-Apr-25 13:30N 43°15' E 005°09'612.1
2017-Apr-25 13:00N 43°20' E 005°15'4 0.2
2017-Apr-24 18:43N 43°21' E 005°20'0 0.7
2017-Apr-24 18:30N 43°21' E 005°20'4 7.4
2017-Apr-24 18:00N 43°19' E 005°15'5 9.9
2017-Apr-24 17:30N 43°16' E 005°11'1811.7
2017-Apr-24 15:59N 42°58' E 005°05'611.9
2017-Apr-24 15:31N 42°54' E 005°01'1912.3
2017-Apr-24 14:00N 42°39' E 004°46'612.5
2017-Apr-24 13:30N 42°34' E 004°41'1812.1
2017-Apr-24 12:00N 42°20' E 004°25'2412.0
2017-Apr-24 10:00N 42°01' E 004°05'611.9
2017-Apr-24 09:30N 41°56' E 003°60'611.9
2017-Apr-24 08:59N 41°51' E 003°54'611.9
2017-Apr-24 08:30N 41°47' E 003°50'611.7
2017-Apr-24 08:01N 41°42' E 003°46'611.9
2017-Apr-24 07:30N 41°38' E 003°41'815.6
2017-Apr-24 07:00N 41°32' E 003°33'816.1
2017-Apr-24 06:30N 41°27' E 003°25'714.2
2017-Apr-24 06:00N 41°21' E 003°19'713.0
2017-Apr-24 05:30N 41°16' E 003°14'713.0
2017-Apr-24 05:00N 41°11' E 003°08'612.9
2017-Apr-24 04:30N 41°06' E 003°03'713.3
2017-Apr-24 04:00N 41°00' E 002°58'713.3
2017-Apr-24 03:30N 40°55' E 002°53'713.2
2017-Apr-24 03:00N 40°50' E 002°48'613.2
2017-Apr-24 02:30N 40°44' E 002°42'713.2
2017-Apr-24 02:00N 40°39' E 002°37'613.2
2017-Apr-24 01:30N 40°34' E 002°32'613.0
2017-Apr-24 01:00N 40°29' E 002°27'713.0
2017-Apr-24 00:30N 40°24' E 002°22'613.1
2017-Apr-24 00:00N 40°18' E 002°17'713.6
2017-Apr-23 23:30N 40°13' E 002°11'713.8
2017-Apr-23 23:00N 40°07' E 002°06'713.4
2017-Apr-23 22:30N 40°02' E 002°00'713.3
2017-Apr-23 22:01N 39°57' E 001°55'713.2
2017-Apr-23 21:30N 39°51' E 001°50'713.0
2017-Apr-23 21:00N 39°46' E 001°45'713.0
2017-Apr-23 20:30N 39°41' E 001°40'713.2
2017-Apr-23 19:59N 39°35' E 001°35'613.2
2017-Apr-23 19:30N 39°30' E 001°30'913.1
2017-Apr-23 18:51N 39°24' E 001°23'513.1
2017-Apr-23 18:30N 39°20' E 001°19'613.1
2017-Apr-23 18:01N 39°15' E 001°14'6613.2
2017-Apr-23 12:58N 38°19' E 000°28'613.1
2017-Apr-23 12:30N 38°14' E 000°24'612.7
2017-Apr-23 12:00N 38°08' E 000°20'  
2017-Apr-19 15:22N 35°57' W 004°56'810.1
2017-Apr-19 14:37N 35°59' W 005°05'110.5
2017-Apr-19 14:29N 35°59' W 005°07'1111.3
2017-Apr-19 13:30N 35°59' W 005°20'611.5
2017-Apr-19 13:00N 35°57' W 005°27'3 6.9
2017-Apr-19 12:30N 35°54' W 005°30'  

Dump ship's entire track history